Time;durP1;ratioP1;P1;durP2;ratioP2;P2;SDS_P1;SDS_P2;PMS_P1;PMS_P2;Temp;Humidity;BMP_temperature;BMP_pressure;BME280_temperature;BME280_humidity;BME280_pressure;Samples;Min_cycle;Max_cycle;Signal;HPM_P1;HPM_P2
2022/08/29 00:00:13;;;;;;;;;;;18.20;92.30;;;;;;5114288;27;20380;-72
2022/08/29 00:02:39;;;;;;;;;;;18.20;92.50;;;;;;5114647;27;19972;-73
2022/08/29 00:05:05;;;;;;;;;;;18.10;92.60;;;;;;5113185;27;19927;-72
2022/08/29 00:07:30;;;;;;;;;;;18.20;92.70;;;;;;5131754;27;19919;-72
2022/08/29 00:09:56;;;;;;;;;;;18.10;92.60;;;;;;5119977;27;19924;-72
2022/08/29 00:12:22;;;;;;;;;;;18.20;93.00;;;;;;5130925;27;20552;-72
2022/08/29 00:14:47;;;;;;;;;;;18.10;93.10;;;;;;5132464;27;19926;-72
2022/08/29 00:17:13;;;;;;;;;;;18.10;93.30;;;;;;5127397;27;19973;-73
2022/08/29 00:19:38;;;;;;;;;;;18.10;93.60;;;;;;5111998;28;19919;-72
2022/08/29 00:22:04;;;;;;;;;;;18.10;93.50;;;;;;5117560;27;20348;-73
2022/08/29 00:24:29;;;;;;;;;;;18.10;93.80;;;;;;5132960;27;19931;-72
2022/08/29 00:26:55;;;;;;;;;;;18.10;93.90;;;;;;5128804;27;20003;-72
2022/08/29 00:29:20;;;;;;;;;;;18.00;94.20;;;;;;5123373;27;19930;-72
2022/08/29 00:31:46;;;;;;;;;;;18.00;94.20;;;;;;5115061;27;19930;-72
2022/08/29 00:34:11;;;;;;;;;;;18.10;94.20;;;;;;5113110;27;20296;-72
2022/08/29 00:36:37;;;;;;;;;;;18.10;94.20;;;;;;5130519;27;19919;-72
2022/08/29 00:39:03;;;;;;;;;;;18.10;94.50;;;;;;5132622;27;19970;-72
2022/08/29 00:41:29;;;;;;;;;;;18.10;94.50;;;;;;5132148;27;19919;-72
2022/08/29 00:43:54;;;;;;;;;;;18.00;94.60;;;;;;5103463;28;20025;-72
2022/08/29 00:46:29;;;;;;;;;;;18.10;94.60;;;;;;5129388;27;19919;-72
2022/08/29 00:48:56;;;;;;;;;;;18.10;94.70;;;;;;5132349;27;19972;-72
2022/08/29 00:51:22;;;;;;;;;;;18.10;94.80;;;;;;5126389;27;19967;-72
2022/08/29 00:53:51;;;;;;;;;;;18.10;94.80;;;;;;5122662;27;19926;-72
2022/08/29 00:56:17;;;;;;;;;;;18.10;94.50;;;;;;5113498;27;20445;-72
2022/08/29 00:58:51;;;;;;;;;;;18.10;95.00;;;;;;5124766;27;19919;-71
2022/08/29 01:01:17;;;;;;;;;;;18.00;95.10;;;;;;5112001;28;19926;-72
2022/08/29 01:03:43;;;;;;;;;;;18.00;95.50;;;;;;5112181;27;20393;-72
2022/08/29 01:06:09;;;;;;;;;;;18.00;96.00;;;;;;5112337;28;19927;-71
2022/08/29 01:08:34;;;;;;;;;;;17.90;96.50;;;;;;5098510;28;19920;-72
2022/08/29 01:13:46;;;;;;;;;;;17.90;97.40;;;;;;5105182;28;19927;-72
2022/08/29 01:16:13;;;;;;;;;;;17.90;97.80;;;;;;5111103;27;19919;-72
2022/08/29 01:18:40;;;;;;;;;;;17.90;98.00;;;;;;5111764;28;20370;-72
2022/08/29 01:21:14;;;;;;;;;;;17.90;98.40;;;;;;5126227;27;19923;-72
2022/08/29 01:23:54;;;;;;;;;;;17.90;98.80;;;;;;5118127;27;19930;-72
2022/08/29 01:26:20;;;;;;;;;;;17.90;98.90;;;;;;5120404;27;19926;-72
2022/08/29 01:28:50;;;;;;;;;;;17.80;98.90;;;;;;5129214;27;19978;-72
2022/08/29 01:31:21;;;;;;;;;;;17.90;99.40;;;;;;5115106;27;19920;-72
2022/08/29 01:33:58;;;;;;;;;;;17.80;99.60;;;;;;5122428;27;19972;-72
2022/08/29 01:36:31;;;;;;;;;;;17.80;99.70;;;;;;5114514;27;19927;-72
2022/08/29 01:38:57;;;;;;;;;;;17.80;99.90;;;;;;5112670;27;19926;-72
2022/08/29 01:41:22;;;;;;;;;;;17.80;99.90;;;;;;5131245;27;19927;-72
2022/08/29 01:43:52;;;;;;;;;;;17.80;99.90;;;;;;5130894;27;20329;-72
2022/08/29 01:46:21;;;;;;;;;;;17.80;99.90;;;;;;5127382;27;19926;-72
2022/08/29 01:48:46;;;;;;;;;;;17.80;99.90;;;;;;5127110;27;20052;-72
2022/08/29 01:51:12;;;;;;;;;;;17.80;99.90;;;;;;5127189;27;20393;-72
2022/08/29 01:53:38;;;;;;;;;;;17.80;99.90;;;;;;5121110;27;20454;-73
2022/08/29 01:56:08;;;;;;;;;;;17.80;99.90;;;;;;5118706;27;19919;-72
2022/08/29 01:58:33;;;;;;;;;;;17.70;99.90;;;;;;5115755;27;19958;-72
2022/08/29 02:00:59;;;;;;;;;;;17.70;99.90;;;;;;5119487;27;19989;-72
2022/08/29 02:03:24;;;;;;;;;;;17.70;99.90;;;;;;5099065;27;19927;-72
2022/08/29 02:05:50;;;;;;;;;;;17.80;99.90;;;;;;5130094;27;19925;-72
2022/08/29 02:08:15;;;;;;;;;;;17.70;99.90;;;;;;5119818;27;19926;-73
2022/08/29 02:10:41;;;;;;;;;;;17.80;99.90;;;;;;5115234;27;19919;-72
2022/08/29 02:13:06;;;;;;;;;;;17.70;99.90;;;;;;5119689;27;20579;-73
2022/08/29 02:15:32;;;;;;;;;;;17.70;99.90;;;;;;5114803;27;20170;-72
2022/08/29 02:17:58;;;;;;;;;;;17.80;99.90;;;;;;5112800;27;19919;-73
2022/08/29 02:20:23;;;;;;;;;;;17.80;99.90;;;;;;5130467;27;19919;-71
2022/08/29 02:22:49;;;;;;;;;;;17.70;99.90;;;;;;5126757;27;19930;-72
2022/08/29 02:27:58;;;;;;;;;;;17.70;99.90;;;;;;5114726;27;19942;-72
2022/08/29 02:30:24;;;;;;;;;;;17.80;99.90;;;;;;5130918;27;19919;-71
2022/08/29 02:32:50;;;;;;;;;;;17.80;99.90;;;;;;5125974;27;19972;-72
2022/08/29 02:35:15;;;;;;;;;;;17.70;99.90;;;;;;5098740;27;19927;-72
2022/08/29 02:37:41;;;;;;;;;;;17.70;99.90;;;;;;5117944;27;20336;-72
2022/08/29 02:40:07;;;;;;;;;;;17.70;99.90;;;;;;5123489;27;19930;-71
2022/08/29 02:42:32;;;;;;;;;;;17.70;99.90;;;;;;5122757;27;20288;-72
2022/08/29 02:44:58;;;;;;;;;;;17.70;99.90;;;;;;5124322;28;19919;-72
2022/08/29 02:47:24;;;;;;;;;;;17.70;99.90;;;;;;5119235;28;19919;-73
2022/08/29 02:49:50;;;;;;;;;;;17.70;99.90;;;;;;5129928;28;20285;-72
2022/08/29 02:52:16;;;;;;;;;;;17.70;99.90;;;;;;5130417;27;19919;-72
2022/08/29 02:54:42;;;;;;;;;;;17.70;99.90;;;;;;5096236;28;19977;-72
2022/08/29 02:57:07;;;;;;;;;;;17.70;99.90;;;;;;5112098;28;19930;-72
2022/08/29 02:59:33;;;;;;;;;;;17.60;99.90;;;;;;5130064;27;19919;-72
2022/08/29 03:01:58;;;;;;;;;;;17.70;99.90;;;;;;5106943;28;19920;-72
2022/08/29 03:04:24;;;;;;;;;;;17.70;99.90;;;;;;5122955;27;19919;-72
2022/08/29 03:06:49;;;;;;;;;;;17.70;99.90;;;;;;5133484;27;19927;-72
2022/08/29 03:09:15;;;;;;;;;;;17.70;99.90;;;;;;5126264;27;19927;-72
2022/08/29 03:11:40;;;;;;;;;;;17.70;99.90;;;;;;5128857;27;19919;-72
2022/08/29 03:14:06;;;;;;;;;;;17.70;99.90;;;;;;5107570;28;20708;-72
2022/08/29 03:16:31;;;;;;;;;;;17.70;99.90;;;;;;5113694;28;19967;-72
2022/08/29 03:18:57;;;;;;;;;;;17.70;99.90;;;;;;5114388;27;20003;-72
2022/08/29 03:21:24;;;;;;;;;;;17.70;99.90;;;;;;5115625;27;20286;-72
2022/08/29 03:23:49;;;;;;;;;;;17.70;99.90;;;;;;5126135;27;20305;-72
2022/08/29 03:26:15;;;;;;;;;;;17.70;99.90;;;;;;5115610;27;19920;-72
2022/08/29 03:28:40;;;;;;;;;;;17.70;99.90;;;;;;5115349;27;20309;-72
2022/08/29 03:31:06;;;;;;;;;;;17.70;99.90;;;;;;5133617;27;20288;-72
2022/08/29 03:33:32;;;;;;;;;;;17.70;99.90;;;;;;5125613;27;20466;-72
2022/08/29 03:35:57;;;;;;;;;;;17.70;99.90;;;;;;5127408;27;19927;-72
2022/08/29 03:38:23;;;;;;;;;;;17.70;99.90;;;;;;5126760;27;19975;-72
2022/08/29 03:40:48;;;;;;;;;;;17.80;99.90;;;;;;5113995;27;19919;-72
2022/08/29 03:43:14;;;;;;;;;;;17.80;99.90;;;;;;5115145;27;19974;-72
2022/08/29 03:45:39;;;;;;;;;;;17.70;99.90;;;;;;5129337;27;20300;-72
2022/08/29 03:48:05;;;;;;;;;;;17.80;99.90;;;;;;5115216;27;19924;-72
2022/08/29 03:50:31;;;;;;;;;;;17.80;99.90;;;;;;5125146;27;19931;-72
2022/08/29 03:52:56;;;;;;;;;;;17.80;99.90;;;;;;5115231;27;19967;-72
2022/08/29 03:55:22;;;;;;;;;;;17.80;99.90;;;;;;5132842;27;20010;-72
2022/08/29 03:57:48;;;;;;;;;;;17.80;99.90;;;;;;5117875;27;19920;-71
2022/08/29 04:00:15;;;;;;;;;;;17.80;99.90;;;;;;5126809;27;19923;-71
2022/08/29 04:02:43;;;;;;;;;;;17.70;99.90;;;;;;5125448;27;20333;-71
2022/08/29 04:05:08;;;;;;;;;;;17.70;99.90;;;;;;5119644;27;19972;-72
2022/08/29 04:07:46;;;;;;;;;;;17.70;99.90;;;;;;5120300;27;20514;-71
2022/08/29 04:10:17;;;;;;;;;;;17.70;99.90;;;;;;5115012;27;20381;-71
2022/08/29 04:12:43;;;;;;;;;;;17.70;99.90;;;;;;5119163;27;19927;-72
2022/08/29 04:15:09;;;;;;;;;;;17.70;99.90;;;;;;5132410;27;19924;-71
2022/08/29 04:17:34;;;;;;;;;;;17.70;99.90;;;;;;5120542;27;19919;-71
2022/08/29 04:20:00;;;;;;;;;;;17.70;99.90;;;;;;5133063;27;19924;-71
2022/08/29 04:22:26;;;;;;;;;;;17.80;99.90;;;;;;5132772;27;19919;-71
2022/08/29 04:24:51;;;;;;;;;;;17.70;99.90;;;;;;5118588;27;20045;-72
2022/08/29 04:27:17;;;;;;;;;;;17.70;99.90;;;;;;5112508;28;19920;-71
2022/08/29 04:29:42;;;;;;;;;;;17.70;99.90;;;;;;5126382;27;20415;-71
2022/08/29 04:32:08;;;;;;;;;;;17.70;99.90;;;;;;5132507;27;19988;-71
2022/08/29 04:34:33;;;;;;;;;;;17.70;99.90;;;;;;5100558;27;19926;-71
2022/08/29 04:36:59;;;;;;;;;;;17.70;99.90;;;;;;5132992;27;19925;-71
2022/08/29 04:39:24;;;;;;;;;;;17.70;99.90;;;;;;5100802;27;20292;-72
2022/08/29 04:41:50;;;;;;;;;;;17.70;99.90;;;;;;5132189;27;19964;-71
2022/08/29 04:44:15;;;;;;;;;;;17.70;99.90;;;;;;5111380;27;19923;-71
2022/08/29 04:46:41;;;;;;;;;;;17.70;99.90;;;;;;5132246;27;20464;-71
2022/08/29 04:49:07;;;;;;;;;;;17.70;99.90;;;;;;5130976;27;19923;-72
2022/08/29 04:51:33;;;;;;;;;;;17.70;99.90;;;;;;5113796;27;19920;-73
2022/08/29 04:53:59;;;;;;;;;;;17.70;99.90;;;;;;5132203;27;19926;-73
2022/08/29 04:56:24;;;;;;;;;;;17.70;99.90;;;;;;5125689;27;20305;-72
2022/08/29 04:58:50;;;;;;;;;;;17.70;99.90;;;;;;5111743;27;19923;-72
2022/08/29 05:01:20;;;;;;;;;;;17.70;99.90;;;;;;5131589;27;19926;-74
2022/08/29 05:03:47;;;;;;;;;;;17.80;99.90;;;;;;5132244;27;19920;-72
2022/08/29 05:06:13;;;;;;;;;;;17.80;99.90;;;;;;5112127;27;19919;-72
2022/08/29 05:08:40;;;;;;;;;;;17.80;99.90;;;;;;5112795;27;19919;-71
2022/08/29 05:11:08;;;;;;;;;;;17.80;99.90;;;;;;5125025;27;19923;-70
2022/08/29 05:13:33;;;;;;;;;;;17.80;99.90;;;;;;5112652;27;20012;-72
2022/08/29 05:16:03;;;;;;;;;;;17.80;99.90;;;;;;5124344;27;20346;-70
2022/08/29 05:18:28;;;;;;;;;;;17.80;99.90;;;;;;5106619;27;20333;-71
2022/08/29 05:20:54;;;;;;;;;;;17.90;99.90;;;;;;5111102;27;19989;-70
2022/08/29 05:23:20;;;;;;;;;;;17.90;99.90;;;;;;5112628;27;20010;-72
2022/08/29 05:25:53;;;;;;;;;;;17.90;99.90;;;;;;5124225;27;19926;-70
2022/08/29 05:28:19;;;;;;;;;;;17.90;99.90;;;;;;5113466;27;20002;-71
2022/08/29 05:30:44;;;;;;;;;;;17.90;99.90;;;;;;5122869;27;20010;-72
2022/08/29 05:33:10;;;;;;;;;;;17.90;99.90;;;;;;5125963;27;20380;-72
2022/08/29 05:35:36;;;;;;;;;;;18.00;99.90;;;;;;5122289;27;20370;-71
2022/08/29 05:38:01;;;;;;;;;;;18.00;99.90;;;;;;5114156;27;20038;-72
2022/08/29 05:40:27;;;;;;;;;;;18.10;99.90;;;;;;5118682;27;20006;-72
2022/08/29 05:42:54;;;;;;;;;;;18.10;99.90;;;;;;5122516;27;19923;-71
2022/08/29 05:45:19;;;;;;;;;;;18.10;99.90;;;;;;5116992;27;19919;-72
2022/08/29 05:47:45;;;;;;;;;;;18.20;99.90;;;;;;5129624;27;19920;-72
2022/08/29 05:50:12;;;;;;;;;;;18.20;99.90;;;;;;5131139;27;19919;-72
2022/08/29 05:52:39;;;;;;;;;;;18.10;99.90;;;;;;5115657;27;19941;-72
2022/08/29 05:55:05;;;;;;;;;;;18.20;99.90;;;;;;5118830;27;19923;-71
2022/08/29 05:57:30;;;;;;;;;;;18.20;99.90;;;;;;5128930;27;19927;-71
2022/08/29 05:59:56;;;;;;;;;;;18.20;99.90;;;;;;5119154;27;20292;-71
2022/08/29 06:02:22;;;;;;;;;;;18.20;99.90;;;;;;5130385;27;19923;-71
2022/08/29 06:04:48;;;;;;;;;;;18.20;99.90;;;;;;5130545;27;20285;-72
2022/08/29 06:07:14;;;;;;;;;;;18.20;99.90;;;;;;5129144;27;19927;-71
2022/08/29 06:09:41;;;;;;;;;;;18.20;99.90;;;;;;5118625;27;19923;-72
2022/08/29 06:12:07;;;;;;;;;;;18.20;99.90;;;;;;5129031;27;19919;-71
2022/08/29 06:14:33;;;;;;;;;;;18.20;99.90;;;;;;5121791;27;19927;-71
2022/08/29 06:16:58;;;;;;;;;;;18.20;99.90;;;;;;5104261;28;20290;-72
2022/08/29 06:19:24;;;;;;;;;;;18.30;99.90;;;;;;5110595;28;19927;-71
2022/08/29 06:21:53;;;;;;;;;;;18.30;99.90;;;;;;5125856;27;20401;-71
2022/08/29 06:24:18;;;;;;;;;;;18.30;99.90;;;;;;5103074;28;19990;-72
2022/08/29 06:26:44;;;;;;;;;;;18.30;99.90;;;;;;5124097;27;19969;-71
2022/08/29 06:29:10;;;;;;;;;;;18.40;99.90;;;;;;5110071;28;20074;-72
2022/08/29 06:31:35;;;;;;;;;;;18.40;99.90;;;;;;5112601;28;19927;-72
2022/08/29 06:34:06;;;;;;;;;;;18.40;99.90;;;;;;5120930;27;19923;-72
2022/08/29 06:36:32;;;;;;;;;;;18.50;99.90;;;;;;5126366;27;19975;-71
2022/08/29 06:38:59;;;;;;;;;;;18.50;99.90;;;;;;5130739;27;19919;-72
2022/08/29 06:41:25;;;;;;;;;;;18.50;99.90;;;;;;5130147;27;19987;-72
2022/08/29 06:43:51;;;;;;;;;;;18.60;99.90;;;;;;5119417;27;19927;-71
2022/08/29 06:46:19;;;;;;;;;;;18.60;99.90;;;;;;5123974;28;19919;-71
2022/08/29 06:48:45;;;;;;;;;;;18.60;99.90;;;;;;5119892;28;19964;-72
2022/08/29 06:51:10;;;;;;;;;;;18.70;99.90;;;;;;5113799;28;20002;-71
2022/08/29 06:53:36;;;;;;;;;;;18.70;99.90;;;;;;5109473;28;19924;-71
2022/08/29 06:56:02;;;;;;;;;;;18.70;99.90;;;;;;5127778;28;19969;-73
2022/08/29 06:58:28;;;;;;;;;;;18.80;99.90;;;;;;5131626;28;19919;-73
2022/08/29 07:00:53;;;;;;;;;;;18.90;99.90;;;;;;5099821;28;20281;-72
2022/08/29 07:03:20;;;;;;;;;;;18.90;99.90;;;;;;5131033;28;19940;-73
2022/08/29 07:05:49;;;;;;;;;;;18.90;99.90;;;;;;5129248;28;19920;-73
2022/08/29 07:08:15;;;;;;;;;;;19.00;99.90;;;;;;5128360;28;19964;-73
2022/08/29 07:10:43;;;;;;;;;;;19.00;99.90;;;;;;5122175;28;19923;-73
2022/08/29 07:13:08;;;;;;;;;;;19.10;99.90;;;;;;5126263;28;20361;-72
2022/08/29 07:15:34;;;;;;;;;;;19.20;99.90;;;;;;5123994;28;19927;-72
2022/08/29 07:17:59;;;;;;;;;;;19.30;99.90;;;;;;5126718;28;19919;-72
2022/08/29 07:20:25;;;;;;;;;;;19.40;99.90;;;;;;5127266;28;19920;-72
2022/08/29 07:22:51;;;;;;;;;;;19.50;99.90;;;;;;5092366;28;19920;-73
2022/08/29 07:25:17;;;;;;;;;;;19.60;99.90;;;;;;5124969;28;20243;-72
2022/08/29 07:27:42;;;;;;;;;;;19.70;99.90;;;;;;5112719;28;19962;-72
2022/08/29 07:30:08;;;;;;;;;;;19.70;99.90;;;;;;5124871;28;19959;-73
2022/08/29 07:32:34;;;;;;;;;;;19.70;99.90;;;;;;5092263;28;19920;-72
2022/08/29 07:34:59;;;;;;;;;;;19.80;99.90;;;;;;5110032;28;19923;-72
2022/08/29 07:37:25;;;;;;;;;;;19.80;99.90;;;;;;5120722;28;19919;-73
2022/08/29 07:39:50;;;;;;;;;;;19.90;99.90;;;;;;5113016;28;20289;-72
2022/08/29 07:42:16;;;;;;;;;;;19.80;99.90;;;;;;5120501;27;20365;-73
2022/08/29 07:44:41;;;;;;;;;;;19.90;99.90;;;;;;5120497;27;20297;-72
2022/08/29 07:47:07;;;;;;;;;;;19.90;99.90;;;;;;5123639;27;19930;-73
2022/08/29 07:49:32;;;;;;;;;;;19.90;99.90;;;;;;5141058;27;19974;-72
2022/08/29 07:51:58;;;;;;;;;;;19.90;99.90;;;;;;5129519;28;19919;-73
2022/08/29 07:54:24;;;;;;;;;;;19.90;99.90;;;;;;5146003;27;19928;-73
2022/08/29 07:56:50;;;;;;;;;;;19.90;99.90;;;;;;5151087;27;19926;-72
2022/08/29 07:59:17;;;;;;;;;;;19.90;99.90;;;;;;5138006;27;19927;-72
2022/08/29 08:01:43;;;;;;;;;;;20.00;99.90;;;;;;5145216;27;19926;-72
2022/08/29 08:04:09;;;;;;;;;;;20.00;99.90;;;;;;5122699;27;19928;-72
2022/08/29 08:06:36;;;;;;;;;;;20.00;99.90;;;;;;5116726;27;20404;-72
2022/08/29 08:09:03;;;;;;;;;;;20.10;99.90;;;;;;5130891;27;20339;-72
2022/08/29 08:11:28;;;;;;;;;;;20.20;99.90;;;;;;5125869;27;19920;-72
2022/08/29 08:13:54;;;;;;;;;;;20.20;99.90;;;;;;5136599;27;19919;-72
2022/08/29 08:16:21;;;;;;;;;;;20.30;99.90;;;;;;5136988;27;19976;-72
2022/08/29 08:18:47;;;;;;;;;;;20.30;99.90;;;;;;5121107;27;19942;-72
2022/08/29 08:21:13;;;;;;;;;;;20.30;99.90;;;;;;5135045;27;20015;-72
2022/08/29 08:23:39;;;;;;;;;;;20.30;99.90;;;;;;5120867;27;20361;-73
2022/08/29 08:26:05;;;;;;;;;;;20.40;99.90;;;;;;5134300;27;19926;-72
2022/08/29 08:28:31;;;;;;;;;;;20.40;99.90;;;;;;5119794;27;19930;-72
2022/08/29 08:30:57;;;;;;;;;;;20.40;99.90;;;;;;5111483;28;19919;-73
2022/08/29 08:33:23;;;;;;;;;;;20.40;99.90;;;;;;5126129;27;20014;-72
2022/08/29 08:35:49;;;;;;;;;;;20.50;99.90;;;;;;5123234;27;20006;-71
2022/08/29 08:38:15;;;;;;;;;;;20.60;99.90;;;;;;5132510;27;19944;-72
2022/08/29 08:40:44;;;;;;;;;;;20.60;99.90;;;;;;5122399;27;19955;-72
2022/08/29 08:43:12;;;;;;;;;;;20.70;99.90;;;;;;5130044;27;19919;-71
2022/08/29 08:45:42;;;;;;;;;;;20.70;99.90;;;;;;5132715;27;20361;-73
2022/08/29 08:48:17;;;;;;;;;;;20.80;99.90;;;;;;5132614;27;20005;-72
2022/08/29 08:50:50;;;;;;;;;;;20.80;99.90;;;;;;5120369;27;19920;-72
2022/08/29 08:53:26;;;;;;;;;;;20.90;99.90;;;;;;5119377;27;19923;-72
2022/08/29 08:55:53;;;;;;;;;;;20.90;99.90;;;;;;5112402;27;19925;-72
2022/08/29 08:58:30;;;;;;;;;;;20.80;99.90;;;;;;5121046;27;19992;-72
2022/08/29 09:00:59;;;;;;;;;;;20.80;99.90;;;;;;5128711;27;19919;-72
2022/08/29 09:03:37;;;;;;;;;;;20.70;99.90;;;;;;5112094;28;19926;-72
2022/08/29 09:06:14;;;;;;;;;;;20.60;99.90;;;;;;5130793;27;20010;-71
2022/08/29 09:08:49;;;;;;;;;;;20.60;99.90;;;;;;5132314;27;19923;-72
2022/08/29 09:11:27;;;;;;;;;;;20.60;99.90;;;;;;5132436;27;19919;-72
2022/08/29 09:13:56;;;;;;;;;;;20.60;99.90;;;;;;5131287;27;20367;-72
2022/08/29 09:16:42;;;;;;;;;;;20.60;99.90;;;;;;5122413;27;20571;-72
2022/08/29 09:19:10;;;;;;;;;;;20.60;99.90;;;;;;5130653;27;19931;-72
2022/08/29 09:21:44;;;;;;;;;;;20.60;99.90;;;;;;5131720;27;20010;-72
2022/08/29 09:24:13;;;;;;;;;;;20.60;99.90;;;;;;5118762;27;20413;-71
2022/08/29 09:26:39;;;;;;;;;;;20.70;99.90;;;;;;5130405;27;20534;-71
2022/08/29 09:29:08;;;;;;;;;;;20.70;99.90;;;;;;5124159;27;19924;-72
2022/08/29 09:31:34;;;;;;;;;;;20.70;99.90;;;;;;5125011;27;20002;-72
2022/08/29 09:34:02;;;;;;;;;;;20.70;99.90;;;;;;5111375;27;19977;-73
2022/08/29 09:36:39;;;;;;;;;;;20.70;99.90;;;;;;5125167;27;20385;-72
2022/08/29 09:39:16;;;;;;;;;;;20.70;99.90;;;;;;5111082;27;19920;-72
2022/08/29 09:41:42;;;;;;;;;;;20.80;99.90;;;;;;5129460;27;19967;-72
2022/08/29 09:44:11;;;;;;;;;;;20.90;99.90;;;;;;5120220;27;19967;-72
2022/08/29 09:46:37;;;;;;;;;;;20.90;99.90;;;;;;5128742;27;19973;-72
2022/08/29 09:49:02;;;;;;;;;;;21.00;99.90;;;;;;5119150;27;19955;-72
2022/08/29 09:51:29;;;;;;;;;;;21.00;99.90;;;;;;5130338;27;19930;-72
2022/08/29 09:54:11;;;;;;;;;;;21.00;99.90;;;;;;5118582;27;19970;-72
2022/08/29 09:56:38;;;;;;;;;;;21.10;99.90;;;;;;5111149;27;20006;-72
2022/08/29 09:59:11;;;;;;;;;;;21.20;99.90;;;;;;5125551;27;19938;-72
2022/08/29 10:01:38;;;;;;;;;;;21.30;99.90;;;;;;5129736;27;19964;-72
2022/08/29 10:04:05;;;;;;;;;;;21.30;99.90;;;;;;5117607;27;19930;-72
2022/08/29 10:06:32;;;;;;;;;;;21.30;99.90;;;;;;5121830;27;19923;-72
2022/08/29 10:09:07;;;;;;;;;;;21.30;99.90;;;;;;5112687;27;19920;-73
2022/08/29 10:11:41;;;;;;;;;;;21.40;99.90;;;;;;5131481;27;19948;-72
2022/08/29 10:14:25;;;;;;;;;;;21.50;99.90;;;;;;5117422;27;19919;-73
2022/08/29 10:16:55;;;;;;;;;;;21.60;99.90;;;;;;5116087;27;20014;-72
2022/08/29 10:19:24;;;;;;;;;;;21.70;99.90;;;;;;5119294;27;19919;-72
2022/08/29 10:22:03;;;;;;;;;;;21.80;99.90;;;;;;5117280;27;19920;-72
2022/08/29 10:24:34;;;;;;;;;;;21.90;99.40;;;;;;5131073;27;19980;-72
2022/08/29 10:27:05;;;;;;;;;;;21.90;99.20;;;;;;5125568;27;19936;-71
2022/08/29 10:29:37;;;;;;;;;;;21.80;99.30;;;;;;5110337;27;19923;-72
2022/08/29 10:32:08;;;;;;;;;;;21.70;99.30;;;;;;5123494;27;20010;-72
2022/08/29 10:34:33;;;;;;;;;;;21.70;99.20;;;;;;5124413;27;19962;-72
2022/08/29 10:37:09;;;;;;;;;;;21.60;99.30;;;;;;5130777;27;19975;-73
2022/08/29 10:39:41;;;;;;;;;;;21.60;99.30;;;;;;5130642;27;19980;-71
2022/08/29 10:42:11;;;;;;;;;;;21.60;99.10;;;;;;5121513;27;19931;-72
2022/08/29 10:44:39;;;;;;;;;;;21.50;98.80;;;;;;5126065;27;19927;-72
2022/08/29 10:47:08;;;;;;;;;;;21.60;98.70;;;;;;5102332;28;19927;-73
2022/08/29 10:49:43;;;;;;;;;;;21.60;98.80;;;;;;5127040;28;19919;-72
2022/08/29 10:52:27;;;;;;;;;;;21.60;98.80;;;;;;5130409;28;19963;-73
2022/08/29 10:54:59;;;;;;;;;;;21.60;98.60;;;;;;5117062;28;19919;-72
2022/08/29 10:57:24;;;;;;;;;;;21.60;98.20;;;;;;5130184;28;19919;-72
2022/08/29 10:59:50;;;;;;;;;;;21.50;98.50;;;;;;5122604;28;19924;-72
2022/08/29 11:02:26;;;;;;;;;;;21.60;98.30;;;;;;5125018;27;20373;-73
2022/08/29 11:04:53;;;;;;;;;;;21.60;97.90;;;;;;5130435;28;20380;-73
2022/08/29 11:07:45;;;;;;;;;;;21.70;97.90;;;;;;5130284;28;19920;-72
2022/08/29 11:10:11;;;;;;;;;;;21.70;97.90;;;;;;5111908;28;19967;-72
2022/08/29 11:12:48;;;;;;;;;;;21.80;97.90;;;;;;5130348;28;19957;-72
2022/08/29 11:15:16;;;;;;;;;;;21.90;98.00;;;;;;5130280;28;19949;-72
2022/08/29 11:17:43;;;;;;;;;;;22.10;98.20;;;;;;5123399;27;19924;-72
2022/08/29 11:20:12;;;;;;;;;;;22.30;97.70;;;;;;5129039;27;20015;-72
2022/08/29 11:22:43;;;;;;;;;;;22.40;97.30;;;;;;5133873;27;19931;-72
2022/08/29 11:25:13;;;;;;;;;;;22.50;97.20;;;;;;5131029;27;19936;-72
2022/08/29 11:27:44;;;;;;;;;;;22.50;97.10;;;;;;5123964;27;19960;-72
2022/08/29 11:30:35;;;;;;;;;;;22.60;97.20;;;;;;5116550;27;19919;-72
2022/08/29 11:33:20;;;;;;;;;;;22.60;97.10;;;;;;5113596;27;19970;-72
2022/08/29 11:35:54;;;;;;;;;;;22.70;97.10;;;;;;5113479;28;19920;-72
2022/08/29 11:38:35;;;;;;;;;;;22.70;96.90;;;;;;5132029;27;19988;-72
2022/08/29 11:41:17;;;;;;;;;;;22.80;96.80;;;;;;5133640;27;20692;-72
2022/08/29 11:43:46;;;;;;;;;;;22.70;96.40;;;;;;5122258;27;20282;-72
2022/08/29 11:46:13;;;;;;;;;;;22.80;96.60;;;;;;5130556;27;19964;-72
2022/08/29 11:48:40;;;;;;;;;;;22.90;96.60;;;;;;5123268;27;20013;-71
2022/08/29 11:51:24;;;;;;;;;;;23.00;96.70;;;;;;5119629;27;19924;-72
2022/08/29 11:53:50;;;;;;;;;;;23.10;96.30;;;;;;5133654;27;19923;-72
2022/08/29 11:56:16;;;;;;;;;;;23.10;96.20;;;;;;5133069;27;19992;-72
2022/08/29 11:58:43;;;;;;;;;;;23.30;96.20;;;;;;5133774;27;20364;-72
2022/08/29 12:01:10;;;;;;;;;;;23.40;95.80;;;;;;5132192;27;20392;-72
2022/08/29 12:03:36;;;;;;;;;;;23.70;95.70;;;;;;5121687;27;19966;-72
2022/08/29 12:06:01;;;;;;;;;;;24.20;95.50;;;;;;5130204;27;19974;-72
2022/08/29 12:08:36;;;;;;;;;;;24.90;94.90;;;;;;5133416;27;19919;-70
2022/08/29 12:11:02;;;;;;;;;;;25.20;93.90;;;;;;5132482;27;19919;-70
2022/08/29 12:13:42;;;;;;;;;;;25.40;93.60;;;;;;5133384;27;20319;-70
2022/08/29 12:16:09;;;;;;;;;;;25.30;93.50;;;;;;5132908;27;19923;-70
2022/08/29 12:18:39;;;;;;;;;;;25.10;93.30;;;;;;5117745;27;19927;-70
2022/08/29 12:21:25;;;;;;;;;;;24.90;92.90;;;;;;5131991;27;20278;-72
2022/08/29 12:23:50;;;;;;;;;;;24.80;93.40;;;;;;5113950;27;19920;-70
2022/08/29 12:26:34;;;;;;;;;;;24.70;93.20;;;;;;5113102;27;19926;-72
2022/08/29 12:29:00;;;;;;;;;;;24.70;93.40;;;;;;5112530;28;19919;-71
2022/08/29 12:31:29;;;;;;;;;;;24.70;93.60;;;;;;5126463;27;20330;-71
2022/08/29 12:34:13;;;;;;;;;;;24.60;93.20;;;;;;5120194;27;19936;-71
2022/08/29 12:36:56;;;;;;;;;;;24.60;93.30;;;;;;5130713;27;19924;-71
2022/08/29 12:39:34;;;;;;;;;;;24.60;93.10;;;;;;5120154;27;19924;-71
2022/08/29 12:42:00;;;;;;;;;;;24.60;93.20;;;;;;5118894;27;20282;-71
2022/08/29 12:44:26;;;;;;;;;;;24.70;93.10;;;;;;5119135;27;19934;-71
2022/08/29 12:46:54;;;;;;;;;;;24.80;93.00;;;;;;5120521;27;20006;-71
2022/08/29 12:49:22;;;;;;;;;;;25.20;93.00;;;;;;5118583;27;20338;-70
2022/08/29 12:51:49;;;;;;;;;;;25.50;92.40;;;;;;5132478;27;19919;-71
2022/08/29 12:54:27;;;;;;;;;;;25.40;92.30;;;;;;5118447;27;19965;-71
2022/08/29 12:56:52;;;;;;;;;;;25.40;92.60;;;;;;5131224;27;19923;-71
2022/08/29 12:59:19;;;;;;;;;;;25.30;92.10;;;;;;5131191;27;19919;-70
2022/08/29 13:01:50;;;;;;;;;;;25.30;92.30;;;;;;5103190;28;19966;-71
2022/08/29 13:04:18;;;;;;;;;;;25.50;92.30;;;;;;5114974;27;20444;-71
2022/08/29 13:06:53;;;;;;;;;;;25.50;91.90;;;;;;5131238;27;20397;-72
2022/08/29 13:09:30;;;;;;;;;;;25.40;92.10;;;;;;5118004;27;19925;-71
2022/08/29 13:12:24;;;;;;;;;;;25.40;91.50;;;;;;5131317;27;19923;-71
2022/08/29 13:14:55;;;;;;;;;;;25.70;91.90;;;;;;5087811;28;20420;-70
2022/08/29 13:17:39;;;;;;;;;;;26.40;91.40;;;;;;5130108;27;19923;-71
2022/08/29 13:20:24;;;;;;;;;;;27.00;91.30;;;;;;5131308;27;19920;-71
2022/08/29 13:22:50;;;;;;;;;;;27.60;90.20;;;;;;5131582;27;19919;-72
2022/08/29 13:25:16;;;;;;;;;;;27.60;88.70;;;;;;5131105;27;19926;-71
2022/08/29 13:27:43;;;;;;;;;;;27.60;88.10;;;;;;5122861;27;19920;-71
2022/08/29 13:30:19;;;;;;;;;;;27.80;88.70;;;;;;5128029;27;19938;-71
2022/08/29 13:32:48;;;;;;;;;;;27.90;88.20;;;;;;5119968;27;19920;-71
2022/08/29 13:35:13;;;;;;;;;;;27.80;87.80;;;;;;5116744;27;20391;-71
2022/08/29 13:37:41;;;;;;;;;;;27.80;86.80;;;;;;5130962;27;19924;-71
2022/08/29 13:40:25;;;;;;;;;;;27.70;87.10;;;;;;5110758;27;19920;-70
2022/08/29 13:42:50;;;;;;;;;;;28.00;86.90;;;;;;5126078;27;19926;-71
2022/08/29 13:45:19;;;;;;;;;;;28.60;87.00;;;;;;5131465;27;19919;-71
2022/08/29 13:47:49;;;;;;;;;;;29.20;84.50;;;;;;5130747;27;20055;-71
2022/08/29 13:50:14;;;;;;;;;;;29.60;84.10;;;;;;5131551;27;20002;-71
2022/08/29 13:52:40;;;;;;;;;;;29.90;82.90;;;;;;5117132;27;20071;-71
2022/08/29 13:55:06;;;;;;;;;;;30.00;82.60;;;;;;5131147;27;19926;-71
2022/08/29 13:57:33;;;;;;;;;;;29.80;82.00;;;;;;5117598;27;19920;-71
2022/08/29 13:59:59;;;;;;;;;;;29.00;81.90;;;;;;5122617;27;19927;-71
2022/08/29 14:02:25;;;;;;;;;;;28.30;81.00;;;;;;5124089;27;19920;-71
2022/08/29 14:04:51;;;;;;;;;;;27.70;81.80;;;;;;5110866;28;19964;-71
2022/08/29 14:07:18;;;;;;;;;;;27.20;82.60;;;;;;5124423;27;19919;-71
2022/08/29 14:09:44;;;;;;;;;;;26.90;83.90;;;;;;5110509;28;19919;-71
2022/08/29 14:12:11;;;;;;;;;;;26.70;83.60;;;;;;5126297;27;19939;-71
2022/08/29 14:14:37;;;;;;;;;;;26.70;83.30;;;;;;5131188;27;19920;-71
2022/08/29 14:17:02;;;;;;;;;;;27.20;84.40;;;;;;5117101;27;19931;-71
2022/08/29 14:19:29;;;;;;;;;;;27.10;82.30;;;;;;5103109;28;19926;-70
2022/08/29 14:21:57;;;;;;;;;;;26.60;83.50;;;;;;5126963;27;19926;-71
2022/08/29 14:24:23;;;;;;;;;;;26.30;84.40;;;;;;5121374;27;19923;-70
2022/08/29 14:26:48;;;;;;;;;;;26.30;85.20;;;;;;5107853;27;19919;-71